sensor_id;sensor_type;location;lat;lon;timestamp;pressure;altitude;pressure_sealevel;temperature;humidity
76460;BME280;65299;46.084;18.762;2024-01-15T00:02:54;99581.16;;;1.30;73.90
76460;BME280;65299;46.084;18.762;2024-01-15T00:05:54;99575.34;;;1.10;74.86
76460;BME280;65299;46.084;18.762;2024-01-15T00:08:54;99577.75;;;1.30;74.42
76460;BME280;65299;46.084;18.762;2024-01-15T00:11:55;99577.13;;;1.46;73.77
76460;BME280;65299;46.084;18.762;2024-01-15T00:14:55;99568.72;;;1.44;73.45
76460;BME280;65299;46.084;18.762;2024-01-15T00:17:55;99578.06;;;1.51;73.84
76460;BME280;65299;46.084;18.762;2024-01-15T00:20:56;99569.16;;;1.23;74.20
76460;BME280;65299;46.084;18.762;2024-01-15T00:23:56;99559.06;;;1.44;74.64
76460;BME280;65299;46.084;18.762;2024-01-15T00:26:57;99543.09;;;1.64;73.96
76460;BME280;65299;46.084;18.762;2024-01-15T00:29:58;99534.19;;;1.53;74.34
76460;BME280;65299;46.084;18.762;2024-01-15T00:32:58;99553.81;;;1.74;74.08
76460;BME280;65299;46.084;18.762;2024-01-15T00:35:58;99544.63;;;1.83;73.33
76460;BME280;65299;46.084;18.762;2024-01-15T00:38:59;99532.31;;;1.84;74.67
76460;BME280;65299;46.084;18.762;2024-01-15T00:41:59;99523.56;;;1.90;75.14
76460;BME280;65299;46.084;18.762;2024-01-15T00:45:00;99524.72;;;1.94;74.54
76460;BME280;65299;46.084;18.762;2024-01-15T00:48:00;99513.34;;;1.77;75.56
76460;BME280;65299;46.084;18.762;2024-01-15T00:51:01;99523.88;;;1.70;76.00
76460;BME280;65299;46.084;18.762;2024-01-15T00:54:01;99510.25;;;1.68;76.16
76460;BME280;65299;46.084;18.762;2024-01-15T00:57:02;99509.78;;;1.71;75.92
76460;BME280;65299;46.084;18.762;2024-01-15T01:00:03;99500.69;;;1.62;76.05
76460;BME280;65299;46.084;18.762;2024-01-15T01:03:04;99493.41;;;1.64;75.86
76460;BME280;65299;46.084;18.762;2024-01-15T01:06:04;99491.91;;;1.56;76.11
76460;BME280;65299;46.084;18.762;2024-01-15T01:09:05;99491.59;;;1.64;75.08
76460;BME280;65299;46.084;18.762;2024-01-15T01:12:06;99487.72;;;1.26;76.38
76460;BME280;65299;46.084;18.762;2024-01-15T01:15:06;99483.75;;;1.23;76.30
76460;BME280;65299;46.084;18.762;2024-01-15T01:18:06;99484.59;;;1.06;76.39
76460;BME280;65299;46.084;18.762;2024-01-15T01:21:07;99480.00;;;1.01;76.43
76460;BME280;65299;46.084;18.762;2024-01-15T01:24:07;99489.91;;;0.81;77.02
76460;BME280;65299;46.084;18.762;2024-01-15T01:27:08;99479.72;;;1.09;76.24
76460;BME280;65299;46.084;18.762;2024-01-15T01:30:08;99470.72;;;1.05;76.54
76460;BME280;65299;46.084;18.762;2024-01-15T01:33:09;99471.06;;;1.09;76.22
76460;BME280;65299;46.084;18.762;2024-01-15T01:36:09;99469.06;;;1.22;75.60
76460;BME280;65299;46.084;18.762;2024-01-15T01:39:10;99459.50;;;1.16;75.90
76460;BME280;65299;46.084;18.762;2024-01-15T01:42:11;99457.44;;;1.07;76.44
76460;BME280;65299;46.084;18.762;2024-01-15T01:45:11;99453.78;;;1.49;75.97
76460;BME280;65299;46.084;18.762;2024-01-15T01:48:12;99444.59;;;1.46;75.97
76460;BME280;65299;46.084;18.762;2024-01-15T01:51:13;99442.00;;;1.69;75.93
76460;BME280;65299;46.084;18.762;2024-01-15T01:54:14;99444.72;;;1.51;77.65
76460;BME280;65299;46.084;18.762;2024-01-15T01:57:15;99448.97;;;1.99;76.75
76460;BME280;65299;46.084;18.762;2024-01-15T02:00:17;99447.03;;;2.06;76.50
76460;BME280;65299;46.084;18.762;2024-01-15T02:03:17;99440.09;;;2.23;76.24
76460;BME280;65299;46.084;18.762;2024-01-15T02:06:18;99443.03;;;2.38;75.72
76460;BME280;65299;46.084;18.762;2024-01-15T02:09:19;99445.81;;;2.20;75.63
76460;BME280;65299;46.084;18.762;2024-01-15T02:12:19;99443.16;;;2.31;75.63
76460;BME280;65299;46.084;18.762;2024-01-15T02:15:19;99440.44;;;2.15;75.23
76460;BME280;65299;46.084;18.762;2024-01-15T02:18:20;99415.41;;;2.07;75.60
76460;BME280;65299;46.084;18.762;2024-01-15T02:21:20;99419.38;;;2.21;76.29
76460;BME280;65299;46.084;18.762;2024-01-15T02:24:21;99410.03;;;2.14;76.11
76460;BME280;65299;46.084;18.762;2024-01-15T02:27:21;99404.47;;;2.33;75.41
76460;BME280;65299;46.084;18.762;2024-01-15T02:30:22;99402.72;;;2.39;75.16
76460;BME280;65299;46.084;18.762;2024-01-15T02:33:24;99391.16;;;2.12;76.31
76460;BME280;65299;46.084;18.762;2024-01-15T02:36:24;99383.63;;;2.27;75.89
76460;BME280;65299;46.084;18.762;2024-01-15T02:39:24;99394.16;;;2.55;75.44
76460;BME280;65299;46.084;18.762;2024-01-15T02:42:26;99386.91;;;2.45;75.60
76460;BME280;65299;46.084;18.762;2024-01-15T02:45:27;99383.31;;;2.23;76.44
76460;BME280;65299;46.084;18.762;2024-01-15T02:48:27;99377.56;;;2.49;75.81
76460;BME280;65299;46.084;18.762;2024-01-15T02:51:27;99376.25;;;2.64;75.57
76460;BME280;65299;46.084;18.762;2024-01-15T02:54:28;99370.94;;;2.75;75.21
76460;BME280;65299;46.084;18.762;2024-01-15T02:57:28;99362.34;;;2.63;75.89
76460;BME280;65299;46.084;18.762;2024-01-15T03:00:29;99344.69;;;2.70;76.38
76460;BME280;65299;46.084;18.762;2024-01-15T03:03:29;99362.69;;;2.67;76.20
76460;BME280;65299;46.084;18.762;2024-01-15T03:06:29;99347.72;;;2.79;76.35
76460;BME280;65299;46.084;18.762;2024-01-15T03:09:30;99336.66;;;2.48;77.09
76460;BME280;65299;46.084;18.762;2024-01-15T03:12:30;99327.84;;;2.66;77.00
76460;BME280;65299;46.084;18.762;2024-01-15T03:15:31;99321.75;;;2.77;76.23
76460;BME280;65299;46.084;18.762;2024-01-15T03:18:31;99318.56;;;2.59;76.89
76460;BME280;65299;46.084;18.762;2024-01-15T03:21:31;99310.38;;;2.72;76.90
76460;BME280;65299;46.084;18.762;2024-01-15T03:24:32;99311.44;;;2.87;76.33
76460;BME280;65299;46.084;18.762;2024-01-15T03:27:32;99308.09;;;2.75;77.04
76460;BME280;65299;46.084;18.762;2024-01-15T03:30:33;99307.56;;;2.90;76.67
76460;BME280;65299;46.084;18.762;2024-01-15T03:33:33;99305.00;;;2.78;76.93
76460;BME280;65299;46.084;18.762;2024-01-15T03:36:33;99302.16;;;2.96;76.18
76460;BME280;65299;46.084;18.762;2024-01-15T03:39:34;99296.91;;;2.96;76.04
76460;BME280;65299;46.084;18.762;2024-01-15T03:42:34;99295.00;;;2.92;76.80
76460;BME280;65299;46.084;18.762;2024-01-15T03:45:35;99298.69;;;2.91;76.98
76460;BME280;65299;46.084;18.762;2024-01-15T03:48:35;99278.59;;;2.96;77.17
76460;BME280;65299;46.084;18.762;2024-01-15T03:51:35;99267.78;;;3.09;76.28
76460;BME280;65299;46.084;18.762;2024-01-15T03:54:36;99272.78;;;2.78;78.10
76460;BME280;65299;46.084;18.762;2024-01-15T03:57:37;99273.97;;;2.87;78.37
76460;BME280;65299;46.084;18.762;2024-01-15T04:00:38;99262.84;;;2.96;77.67
76460;BME280;65299;46.084;18.762;2024-01-15T04:03:39;99259.59;;;3.22;77.28
76460;BME280;65299;46.084;18.762;2024-01-15T04:06:39;99259.13;;;2.92;77.73
76460;BME280;65299;46.084;18.762;2024-01-15T04:09:39;99272.53;;;3.12;77.59
76460;BME280;65299;46.084;18.762;2024-01-15T04:12:40;99273.94;;;3.36;76.43
76460;BME280;65299;46.084;18.762;2024-01-15T04:15:41;99263.56;;;3.25;76.66
76460;BME280;65299;46.084;18.762;2024-01-15T04:18:41;99262.03;;;3.46;76.14
76460;BME280;65299;46.084;18.762;2024-01-15T04:21:41;99266.59;;;3.55;75.42
76460;BME280;65299;46.084;18.762;2024-01-15T04:24:42;99260.28;;;3.73;75.35
76460;BME280;65299;46.084;18.762;2024-01-15T04:27:42;99261.16;;;3.78;74.58
76460;BME280;65299;46.084;18.762;2024-01-15T04:30:43;99262.53;;;3.86;74.31
76460;BME280;65299;46.084;18.762;2024-01-15T04:33:43;99261.31;;;3.72;74.79
76460;BME280;65299;46.084;18.762;2024-01-15T04:36:43;99252.91;;;3.70;75.30
76460;BME280;65299;46.084;18.762;2024-01-15T04:39:44;99250.81;;;3.72;75.18
76460;BME280;65299;46.084;18.762;2024-01-15T04:42:44;99250.88;;;3.77;75.24
76460;BME280;65299;46.084;18.762;2024-01-15T04:45:47;99242.34;;;3.86;74.50
76460;BME280;65299;46.084;18.762;2024-01-15T04:48:48;99240.66;;;3.97;74.25
76460;BME280;65299;46.084;18.762;2024-01-15T04:51:48;99241.72;;;3.79;75.02
76460;BME280;65299;46.084;18.762;2024-01-15T04:54:48;99237.28;;;3.80;74.72
76460;BME280;65299;46.084;18.762;2024-01-15T04:57:50;99232.38;;;3.67;75.48
76460;BME280;65299;46.084;18.762;2024-01-15T05:00:50;99226.59;;;3.86;75.01
76460;BME280;65299;46.084;18.762;2024-01-15T05:03:50;99223.66;;;3.83;74.78
76460;BME280;65299;46.084;18.762;2024-01-15T05:06:51;99222.47;;;3.90;74.96
76460;BME280;65299;46.084;18.762;2024-01-15T05:09:51;99217.06;;;4.02;74.18
76460;BME280;65299;46.084;18.762;2024-01-15T05:12:51;99218.88;;;4.01;74.20
76460;BME280;65299;46.084;18.762;2024-01-15T05:15:52;99215.53;;;4.06;74.16
76460;BME280;65299;46.084;18.762;2024-01-15T05:18:52;99218.31;;;3.94;74.40
76460;BME280;65299;46.084;18.762;2024-01-15T05:21:53;99215.06;;;4.09;73.79
76460;BME280;65299;46.084;18.762;2024-01-15T05:24:53;99226.75;;;4.01;74.12
76460;BME280;65299;46.084;18.762;2024-01-15T05:27:54;99219.00;;;4.11;73.83
76460;BME280;65299;46.084;18.762;2024-01-15T05:30:54;99221.44;;;4.18;73.74
76460;BME280;65299;46.084;18.762;2024-01-15T05:33:55;99216.09;;;4.35;73.25
76460;BME280;65299;46.084;18.762;2024-01-15T05:36:56;99228.94;;;4.31;73.61
76460;BME280;65299;46.084;18.762;2024-01-15T05:39:56;99217.00;;;4.23;73.82
76460;BME280;65299;46.084;18.762;2024-01-15T05:42:56;99208.41;;;4.28;73.78
76460;BME280;65299;46.084;18.762;2024-01-15T05:45:57;99210.66;;;4.41;73.17
76460;BME280;65299;46.084;18.762;2024-01-15T05:48:58;99213.19;;;4.31;73.71
76460;BME280;65299;46.084;18.762;2024-01-15T05:51:59;99213.19;;;4.09;74.34
76460;BME280;65299;46.084;18.762;2024-01-15T05:54:59;99209.59;;;3.89;75.35
76460;BME280;65299;46.084;18.762;2024-01-15T05:57:59;99211.03;;;3.80;75.53
76460;BME280;65299;46.084;18.762;2024-01-15T06:01:00;99201.81;;;3.99;75.04
76460;BME280;65299;46.084;18.762;2024-01-15T06:04:00;99203.94;;;4.02;74.85
76460;BME280;65299;46.084;18.762;2024-01-15T06:07:01;99205.28;;;4.04;74.81
76460;BME280;65299;46.084;18.762;2024-01-15T06:10:01;99203.53;;;3.88;75.29
76460;BME280;65299;46.084;18.762;2024-01-15T06:13:02;99195.59;;;4.05;75.06
76460;BME280;65299;46.084;18.762;2024-01-15T06:16:03;99191.91;;;4.06;75.20
76460;BME280;65299;46.084;18.762;2024-01-15T06:19:03;99184.75;;;4.01;75.07
76460;BME280;65299;46.084;18.762;2024-01-15T06:22:05;99185.63;;;4.07;75.08
76460;BME280;65299;46.084;18.762;2024-01-15T06:25:08;99182.41;;;4.00;75.52
76460;BME280;65299;46.084;18.762;2024-01-15T06:28:09;99197.13;;;4.01;75.17
76460;BME280;65299;46.084;18.762;2024-01-15T06:31:09;99196.22;;;3.90;75.70
76460;BME280;65299;46.084;18.762;2024-01-15T06:34:10;99194.94;;;3.93;76.05
76460;BME280;65299;46.084;18.762;2024-01-15T06:37:10;99192.00;;;4.16;74.98
76460;BME280;65299;46.084;18.762;2024-01-15T06:40:11;99188.81;;;4.09;74.97
76460;BME280;65299;46.084;18.762;2024-01-15T06:43:12;99191.00;;;3.95;75.77
76460;BME280;65299;46.084;18.762;2024-01-15T06:46:13;99188.16;;;3.97;75.92
76460;BME280;65299;46.084;18.762;2024-01-15T06:49:13;99190.13;;;4.11;75.39
76460;BME280;65299;46.084;18.762;2024-01-15T06:52:14;99197.69;;;4.08;75.46
76460;BME280;65299;46.084;18.762;2024-01-15T06:55:14;99200.84;;;4.05;75.57
76460;BME280;65299;46.084;18.762;2024-01-15T06:58:14;99205.94;;;4.16;75.10
76460;BME280;65299;46.084;18.762;2024-01-15T07:01:15;99201.47;;;4.17;75.09
76460;BME280;65299;46.084;18.762;2024-01-15T07:04:15;99198.34;;;4.20;74.58
76460;BME280;65299;46.084;18.762;2024-01-15T07:07:16;99203.31;;;4.16;74.88
76460;BME280;65299;46.084;18.762;2024-01-15T07:10:17;99216.78;;;4.25;74.70
76460;BME280;65299;46.084;18.762;2024-01-15T07:13:18;99214.09;;;4.20;74.66
76460;BME280;65299;46.084;18.762;2024-01-15T07:16:19;99196.91;;;4.34;74.42
76460;BME280;65299;46.084;18.762;2024-01-15T07:19:19;99217.25;;;4.17;74.70
76460;BME280;65299;46.084;18.762;2024-01-15T07:22:20;99207.56;;;4.22;74.83
76460;BME280;65299;46.084;18.762;2024-01-15T07:25:20;99209.81;;;4.09;75.38
76460;BME280;65299;46.084;18.762;2024-01-15T07:28:21;99214.72;;;4.05;75.48
76460;BME280;65299;46.084;18.762;2024-01-15T07:31:21;99206.38;;;4.08;75.44
76460;BME280;65299;46.084;18.762;2024-01-15T07:34:22;99215.59;;;4.11;75.79
76460;BME280;65299;46.084;18.762;2024-01-15T07:37:22;99221.06;;;4.09;75.67
76460;BME280;65299;46.084;18.762;2024-01-15T07:40:23;99217.59;;;4.04;75.70
76460;BME280;65299;46.084;18.762;2024-01-15T07:43:25;99216.03;;;4.03;76.43
76460;BME280;65299;46.084;18.762;2024-01-15T07:46:26;99218.59;;;3.98;76.68
76460;BME280;65299;46.084;18.762;2024-01-15T07:49:27;99225.75;;;4.02;76.95
76460;BME280;65299;46.084;18.762;2024-01-15T07:52:27;99232.25;;;4.00;76.81
76460;BME280;65299;46.084;18.762;2024-01-15T07:55:28;99238.03;;;4.23;76.53
76460;BME280;65299;46.084;18.762;2024-01-15T07:58:28;99231.31;;;4.33;75.83
76460;BME280;65299;46.084;18.762;2024-01-15T08:01:28;99227.97;;;4.42;75.55
76460;BME280;65299;46.084;18.762;2024-01-15T08:04:29;99233.47;;;4.41;75.84
76460;BME280;65299;46.084;18.762;2024-01-15T08:07:29;99244.03;;;4.72;74.79
76460;BME280;65299;46.084;18.762;2024-01-15T08:10:30;99244.19;;;4.92;73.82
76460;BME280;65299;46.084;18.762;2024-01-15T08:13:30;99242.19;;;5.04;73.47
76460;BME280;65299;46.084;18.762;2024-01-15T08:16:30;99242.06;;;4.89;73.38
76460;BME280;65299;46.084;18.762;2024-01-15T08:19:31;99236.00;;;4.89;73.36
76460;BME280;65299;46.084;18.762;2024-01-15T08:22:31;99236.31;;;4.92;73.22
76460;BME280;65299;46.084;18.762;2024-01-15T08:25:32;99241.09;;;5.00;73.15
76460;BME280;65299;46.084;18.762;2024-01-15T08:28:32;99253.13;;;4.91;73.35
76460;BME280;65299;46.084;18.762;2024-01-15T08:31:32;99256.03;;;4.95;73.50
76460;BME280;65299;46.084;18.762;2024-01-15T08:34:33;99251.03;;;4.93;73.37
76460;BME280;65299;46.084;18.762;2024-01-15T08:37:33;99256.44;;;5.14;72.75
76460;BME280;65299;46.084;18.762;2024-01-15T08:40:34;99264.97;;;4.94;73.53
76460;BME280;65299;46.084;18.762;2024-01-15T08:43:34;99282.78;;;4.60;74.56
76460;BME280;65299;46.084;18.762;2024-01-15T08:46:35;99282.75;;;4.82;74.42
76460;BME280;65299;46.084;18.762;2024-01-15T08:49:35;99276.13;;;5.11;73.31
76460;BME280;65299;46.084;18.762;2024-01-15T08:52:37;99278.59;;;5.23;73.15
76460;BME280;65299;46.084;18.762;2024-01-15T08:55:37;99276.38;;;5.46;72.22
76460;BME280;65299;46.084;18.762;2024-01-15T08:58:38;99281.97;;;5.55;71.83
76460;BME280;65299;46.084;18.762;2024-01-15T09:01:38;99289.69;;;5.30;72.62
76460;BME280;65299;46.084;18.762;2024-01-15T09:04:39;99288.19;;;5.39;72.38
76460;BME280;65299;46.084;18.762;2024-01-15T09:07:39;99289.00;;;5.44;72.82
76460;BME280;65299;46.084;18.762;2024-01-15T09:10:40;99282.66;;;5.35;74.17
76460;BME280;65299;46.084;18.762;2024-01-15T09:13:41;99302.59;;;4.99;76.15
76460;BME280;65299;46.084;18.762;2024-01-15T09:16:41;99324.97;;;4.49;77.22
76460;BME280;65299;46.084;18.762;2024-01-15T09:19:41;99332.44;;;4.13;79.68
76460;BME280;65299;46.084;18.762;2024-01-15T09:22:43;99328.38;;;4.01;81.67
76460;BME280;65299;46.084;18.762;2024-01-15T09:25:43;99323.94;;;3.85;82.94
76460;BME280;65299;46.084;18.762;2024-01-15T09:28:43;99340.06;;;3.38;84.68
76460;BME280;65299;46.084;18.762;2024-01-15T09:31:44;99361.81;;;3.06;86.07
76460;BME280;65299;46.084;18.762;2024-01-15T09:34:47;99365.41;;;2.72;87.23
76460;BME280;65299;46.084;18.762;2024-01-15T09:37:47;99367.94;;;2.67;87.65
76460;BME280;65299;46.084;18.762;2024-01-15T09:40:48;99362.63;;;2.50;87.79
76460;BME280;65299;46.084;18.762;2024-01-15T09:43:49;99355.22;;;2.75;87.69
76460;BME280;65299;46.084;18.762;2024-01-15T09:46:50;99364.13;;;2.74;88.03
76460;BME280;65299;46.084;18.762;2024-01-15T09:49:51;99362.72;;;2.83;88.02
76460;BME280;65299;46.084;18.762;2024-01-15T09:52:55;99369.13;;;3.04;86.86
76460;BME280;65299;46.084;18.762;2024-01-15T09:55:58;99367.19;;;2.83;86.83
76460;BME280;65299;46.084;18.762;2024-01-15T09:58:59;99379.47;;;2.82;88.16
76460;BME280;65299;46.084;18.762;2024-01-15T10:02:01;99379.84;;;2.74;87.67
76460;BME280;65299;46.084;18.762;2024-01-15T10:05:03;99371.38;;;2.56;89.53
76460;BME280;65299;46.084;18.762;2024-01-15T10:08:04;99356.44;;;2.16;90.94
76460;BME280;65299;46.084;18.762;2024-01-15T10:11:04;99351.78;;;2.30;90.82
76460;BME280;65299;46.084;18.762;2024-01-15T10:14:05;99366.75;;;2.46;90.80
76460;BME280;65299;46.084;18.762;2024-01-15T10:17:15;99367.94;;;2.27;91.30
76460;BME280;65299;46.084;18.762;2024-01-15T10:20:16;99356.34;;;2.23;91.97
76460;BME280;65299;46.084;18.762;2024-01-15T10:23:16;99358.06;;;2.17;91.92
76460;BME280;65299;46.084;18.762;2024-01-15T10:26:17;99367.41;;;2.13;91.93
76460;BME280;65299;46.084;18.762;2024-01-15T10:29:17;99363.81;;;2.31;91.45
76460;BME280;65299;46.084;18.762;2024-01-15T10:32:17;99371.22;;;2.34;91.28
76460;BME280;65299;46.084;18.762;2024-01-15T10:35:21;99370.63;;;2.43;90.69
76460;BME280;65299;46.084;18.762;2024-01-15T10:38:23;99367.75;;;2.45;91.27
76460;BME280;65299;46.084;18.762;2024-01-15T10:41:24;99354.84;;;2.83;88.87
76460;BME280;65299;46.084;18.762;2024-01-15T10:44:25;99345.25;;;2.72;88.46
76460;BME280;65299;46.084;18.762;2024-01-15T10:47:30;99347.16;;;2.93;88.67
76460;BME280;65299;46.084;18.762;2024-01-15T10:50:32;99331.78;;;2.52;88.84
76460;BME280;65299;46.084;18.762;2024-01-15T10:53:32;99334.47;;;3.02;88.59
76460;BME280;65299;46.084;18.762;2024-01-15T10:56:35;99326.31;;;2.98;88.25
76460;BME280;65299;46.084;18.762;2024-01-15T10:59:36;99323.47;;;3.16;87.45
76460;BME280;65299;46.084;18.762;2024-01-15T11:02:36;99324.00;;;3.18;86.93
76460;BME280;65299;46.084;18.762;2024-01-15T11:05:47;99325.69;;;3.24;87.31
76460;BME280;65299;46.084;18.762;2024-01-15T11:08:48;99314.13;;;3.59;86.38
76460;BME280;65299;46.084;18.762;2024-01-15T11:11:53;99295.72;;;3.37;85.85
76460;BME280;65299;46.084;18.762;2024-01-15T11:15:06;99294.34;;;3.51;85.78
76460;BME280;65299;46.084;18.762;2024-01-15T11:18:09;99295.72;;;3.75;85.13
76460;BME280;65299;46.084;18.762;2024-01-15T11:24:38;99299.81;;;3.66;84.86
76460;BME280;65299;46.084;18.762;2024-01-15T11:27:49;99286.28;;;3.96;83.73
76460;BME280;65299;46.084;18.762;2024-01-15T11:30:53;99287.88;;;4.18;82.90
76460;BME280;65299;46.084;18.762;2024-01-15T11:33:53;99274.06;;;4.28;82.51
76460;BME280;65299;46.084;18.762;2024-01-15T11:40:01;99273.56;;;4.31;82.13
76460;BME280;65299;46.084;18.762;2024-01-15T11:43:02;99296.66;;;3.86;83.72
76460;BME280;65299;46.084;18.762;2024-01-15T11:46:03;99286.72;;;3.88;84.67
76460;BME280;65299;46.084;18.762;2024-01-15T11:49:04;99275.88;;;4.01;84.52
76460;BME280;65299;46.084;18.762;2024-01-15T11:52:06;99257.56;;;4.33;82.91
76460;BME280;65299;46.084;18.762;2024-01-15T11:55:22;99259.81;;;4.46;82.36
76460;BME280;65299;46.084;18.762;2024-01-15T11:58:27;99254.84;;;4.49;82.53
76460;BME280;65299;46.084;18.762;2024-01-15T12:01:27;99239.72;;;4.35;82.35
76460;BME280;65299;46.084;18.762;2024-01-15T12:04:27;99240.00;;;4.38;82.16
76460;BME280;65299;46.084;18.762;2024-01-15T12:07:28;99236.50;;;4.28;82.24
76460;BME280;65299;46.084;18.762;2024-01-15T12:10:29;99223.59;;;4.21;82.50
76460;BME280;65299;46.084;18.762;2024-01-15T12:13:30;99234.00;;;4.16;82.62
76460;BME280;65299;46.084;18.762;2024-01-15T12:16:30;99239.41;;;4.04;83.09
76460;BME280;65299;46.084;18.762;2024-01-15T12:19:30;99244.53;;;3.94;83.99
76460;BME280;65299;46.084;18.762;2024-01-15T12:22:31;99259.41;;;3.67;85.45
76460;BME280;65299;46.084;18.762;2024-01-15T12:25:33;99244.78;;;3.71;85.94
76460;BME280;65299;46.084;18.762;2024-01-15T12:28:34;99228.91;;;3.61;85.05
76460;BME280;65299;46.084;18.762;2024-01-15T12:31:34;99215.84;;;3.06;88.43
76460;BME280;65299;46.084;18.762;2024-01-15T12:34:35;99212.06;;;3.35;88.48
76460;BME280;65299;46.084;18.762;2024-01-15T12:37:36;99225.56;;;3.66;87.29
76460;BME280;65299;46.084;18.762;2024-01-15T12:40:37;99216.44;;;3.68;86.75
76460;BME280;65299;46.084;18.762;2024-01-15T12:43:37;99222.56;;;4.00;85.57
76460;BME280;65299;46.084;18.762;2024-01-15T12:46:38;99216.63;;;4.10;84.74
76460;BME280;65299;46.084;18.762;2024-01-15T12:49:39;99205.13;;;4.16;84.67
76460;BME280;65299;46.084;18.762;2024-01-15T12:52:42;99209.34;;;4.44;83.51
76460;BME280;65299;46.084;18.762;2024-01-15T12:55:43;99208.81;;;4.15;83.60
76460;BME280;65299;46.084;18.762;2024-01-15T12:58:43;99208.28;;;3.91;85.04
76460;BME280;65299;46.084;18.762;2024-01-15T13:01:45;99193.84;;;3.89;85.21
76460;BME280;65299;46.084;18.762;2024-01-15T13:04:46;99199.19;;;3.99;84.71
76460;BME280;65299;46.084;18.762;2024-01-15T13:07:47;99194.25;;;4.29;83.53
76460;BME280;65299;46.084;18.762;2024-01-15T13:10:47;99204.75;;;4.29;83.57
76460;BME280;65299;46.084;18.762;2024-01-15T13:13:47;99204.50;;;4.31;83.09
76460;BME280;65299;46.084;18.762;2024-01-15T13:16:48;99198.19;;;3.78;84.76
76460;BME280;65299;46.084;18.762;2024-01-15T13:19:48;99193.47;;;3.59;86.18
76460;BME280;65299;46.084;18.762;2024-01-15T13:22:49;99185.72;;;3.69;86.39
76460;BME280;65299;46.084;18.762;2024-01-15T13:25:49;99183.41;;;3.72;85.40
76460;BME280;65299;46.084;18.762;2024-01-15T13:28:50;99180.94;;;4.09;84.83
76460;BME280;65299;46.084;18.762;2024-01-15T13:31:50;99180.47;;;4.17;84.22
76460;BME280;65299;46.084;18.762;2024-01-15T13:34:51;99170.16;;;4.10;83.24
76460;BME280;65299;46.084;18.762;2024-01-15T13:37:51;99164.13;;;4.10;83.35
76460;BME280;65299;46.084;18.762;2024-01-15T13:40:53;99166.25;;;4.13;83.39
76460;BME280;65299;46.084;18.762;2024-01-15T13:43:55;99168.19;;;3.96;83.14
76460;BME280;65299;46.084;18.762;2024-01-15T13:46:56;99166.59;;;4.21;82.92
76460;BME280;65299;46.084;18.762;2024-01-15T13:49:57;99169.97;;;4.17;82.42
76460;BME280;65299;46.084;18.762;2024-01-15T13:52:57;99172.09;;;4.20;82.19
76460;BME280;65299;46.084;18.762;2024-01-15T13:55:58;99156.94;;;4.00;83.22
76460;BME280;65299;46.084;18.762;2024-01-15T13:58:59;99173.59;;;4.11;82.69
76460;BME280;65299;46.084;18.762;2024-01-15T14:01:59;99179.56;;;4.06;83.40
76460;BME280;65299;46.084;18.762;2024-01-15T14:05:00;99173.53;;;4.06;83.65
76460;BME280;65299;46.084;18.762;2024-01-15T14:08:02;99173.34;;;4.12;82.95
76460;BME280;65299;46.084;18.762;2024-01-15T14:11:04;99172.19;;;4.30;82.28
76460;BME280;65299;46.084;18.762;2024-01-15T14:14:06;99168.91;;;4.18;82.95
76460;BME280;65299;46.084;18.762;2024-01-15T14:17:08;99165.72;;;4.11;82.63
76460;BME280;65299;46.084;18.762;2024-01-15T14:20:08;99156.59;;;4.18;81.99
76460;BME280;65299;46.084;18.762;2024-01-15T14:23:10;99158.03;;;3.78;83.76
76460;BME280;65299;46.084;18.762;2024-01-15T14:26:10;99158.13;;;3.88;84.29
76460;BME280;65299;46.084;18.762;2024-01-15T14:29:11;99166.16;;;4.03;83.60
76460;BME280;65299;46.084;18.762;2024-01-15T14:32:11;99162.84;;;4.12;83.42
76460;BME280;65299;46.084;18.762;2024-01-15T14:35:11;99157.78;;;4.33;82.27
76460;BME280;65299;46.084;18.762;2024-01-15T14:38:12;99166.75;;;4.10;83.08
76460;BME280;65299;46.084;18.762;2024-01-15T14:41:13;99170.06;;;4.00;83.96
76460;BME280;65299;46.084;18.762;2024-01-15T14:44:13;99184.97;;;3.95;84.19
76460;BME280;65299;46.084;18.762;2024-01-15T14:47:14;99190.41;;;3.88;84.88
76460;BME280;65299;46.084;18.762;2024-01-15T14:50:15;99198.28;;;3.88;84.79
76460;BME280;65299;46.084;18.762;2024-01-15T14:53:15;99192.31;;;3.93;84.73
76460;BME280;65299;46.084;18.762;2024-01-15T14:56:15;99208.84;;;3.72;85.24
76460;BME280;65299;46.084;18.762;2024-01-15T14:59:16;99196.94;;;3.43;86.54
76460;BME280;65299;46.084;18.762;2024-01-15T15:02:16;99193.03;;;3.45;86.43
76460;BME280;65299;46.084;18.762;2024-01-15T15:05:18;99186.28;;;3.49;86.07
76460;BME280;65299;46.084;18.762;2024-01-15T15:08:18;99198.47;;;3.38;86.75
76460;BME280;65299;46.084;18.762;2024-01-15T15:11:18;99194.69;;;3.51;85.73
76460;BME280;65299;46.084;18.762;2024-01-15T15:14:19;99190.53;;;3.77;84.63
76460;BME280;65299;46.084;18.762;2024-01-15T15:17:19;99182.78;;;3.65;84.97
76460;BME280;65299;46.084;18.762;2024-01-15T15:20:19;99187.59;;;3.73;84.41
76460;BME280;65299;46.084;18.762;2024-01-15T15:23:20;99189.31;;;3.84;83.26
76460;BME280;65299;46.084;18.762;2024-01-15T15:26:20;99200.09;;;3.45;85.75
76460;BME280;65299;46.084;18.762;2024-01-15T15:29:21;99200.69;;;3.30;86.02
76460;BME280;65299;46.084;18.762;2024-01-15T15:32:23;99206.28;;;3.17;85.19
76460;BME280;65299;46.084;18.762;2024-01-15T15:35:23;99197.09;;;3.36;84.51
76460;BME280;65299;46.084;18.762;2024-01-15T15:38:24;99189.81;;;3.60;83.58
76460;BME280;65299;46.084;18.762;2024-01-15T15:41:24;99192.06;;;3.29;85.45
76460;BME280;65299;46.084;18.762;2024-01-15T15:44:26;99189.09;;;3.26;84.42
76460;BME280;65299;46.084;18.762;2024-01-15T15:47:26;99210.44;;;3.13;85.32
76460;BME280;65299;46.084;18.762;2024-01-15T15:50:27;99212.56;;;2.99;85.68
76460;BME280;65299;46.084;18.762;2024-01-15T15:53:27;99207.19;;;2.89;86.33
76460;BME280;65299;46.084;18.762;2024-01-15T15:56:28;99217.81;;;2.99;84.91
76460;BME280;65299;46.084;18.762;2024-01-15T15:59:29;99238.47;;;3.12;83.04
76460;BME280;65299;46.084;18.762;2024-01-15T16:02:29;99228.75;;;3.29;83.27
76460;BME280;65299;46.084;18.762;2024-01-15T16:05:30;99225.00;;;3.64;82.35